sensor_id;sensor_type;location;lat;lon;timestamp;P1;durP1;ratioP1;P2;durP2;ratioP2
10945;SDS011;5525;42.648;23.368;2023-04-28T00:00:48;3.75;;;2.55;;
10945;SDS011;5525;42.648;23.368;2023-04-28T00:03:15;3.25;;;2.53;;
10945;SDS011;5525;42.648;23.368;2023-04-28T00:05:42;3.83;;;2.42;;
10945;SDS011;5525;42.648;23.368;2023-04-28T00:08:09;5.00;;;3.33;;
10945;SDS011;5525;42.648;23.368;2023-04-28T00:10:36;4.72;;;2.95;;
10945;SDS011;5525;42.648;23.368;2023-04-28T00:13:04;4.50;;;3.03;;
10945;SDS011;5525;42.648;23.368;2023-04-28T00:15:30;7.50;;;2.78;;
10945;SDS011;5525;42.648;23.368;2023-04-28T00:17:57;3.47;;;2.72;;
10945;SDS011;5525;42.648;23.368;2023-04-28T00:20:24;4.72;;;3.03;;
10945;SDS011;5525;42.648;23.368;2023-04-28T00:22:50;5.65;;;2.72;;
10945;SDS011;5525;42.648;23.368;2023-04-28T00:25:17;5.55;;;2.67;;
10945;SDS011;5525;42.648;23.368;2023-04-28T00:27:44;5.40;;;2.78;;
10945;SDS011;5525;42.648;23.368;2023-04-28T00:30:12;6.65;;;2.95;;
10945;SDS011;5525;42.648;23.368;2023-04-28T00:32:39;5.22;;;2.70;;
10945;SDS011;5525;42.648;23.368;2023-04-28T00:35:06;4.28;;;2.72;;
10945;SDS011;5525;42.648;23.368;2023-04-28T00:37:34;3.40;;;2.95;;
10945;SDS011;5525;42.648;23.368;2023-04-28T00:40:01;7.50;;;3.30;;
10945;SDS011;5525;42.648;23.368;2023-04-28T00:42:28;3.85;;;2.75;;
10945;SDS011;5525;42.648;23.368;2023-04-28T00:44:56;4.30;;;3.05;;
10945;SDS011;5525;42.648;23.368;2023-04-28T00:47:24;4.47;;;2.83;;
10945;SDS011;5525;42.648;23.368;2023-04-28T00:49:51;3.60;;;3.00;;
10945;SDS011;5525;42.648;23.368;2023-04-28T00:52:18;5.13;;;3.08;;
10945;SDS011;5525;42.648;23.368;2023-04-28T00:54:44;4.35;;;2.85;;
10945;SDS011;5525;42.648;23.368;2023-04-28T00:57:12;4.85;;;2.70;;
10945;SDS011;5525;42.648;23.368;2023-04-28T00:59:39;3.75;;;2.53;;
10945;SDS011;5525;42.648;23.368;2023-04-28T01:02:06;3.22;;;2.90;;
10945;SDS011;5525;42.648;23.368;2023-04-28T01:04:34;2.90;;;2.60;;
10945;SDS011;5525;42.648;23.368;2023-04-28T01:07:01;4.47;;;2.58;;
10945;SDS011;5525;42.648;23.368;2023-04-28T01:09:28;5.88;;;3.00;;
10945;SDS011;5525;42.648;23.368;2023-04-28T01:11:55;3.47;;;2.63;;
10945;SDS011;5525;42.648;23.368;2023-04-28T01:14:22;6.20;;;3.00;;
10945;SDS011;5525;42.648;23.368;2023-04-28T01:16:49;4.55;;;2.70;;
10945;SDS011;5525;42.648;23.368;2023-04-28T01:19:16;3.42;;;3.00;;
10945;SDS011;5525;42.648;23.368;2023-04-28T01:21:48;4.18;;;2.65;;
10945;SDS011;5525;42.648;23.368;2023-04-28T01:24:16;3.13;;;2.70;;
10945;SDS011;5525;42.648;23.368;2023-04-28T01:26:44;4.38;;;3.25;;
10945;SDS011;5525;42.648;23.368;2023-04-28T01:29:11;4.45;;;2.90;;
10945;SDS011;5525;42.648;23.368;2023-04-28T01:31:38;3.67;;;2.63;;
10945;SDS011;5525;42.648;23.368;2023-04-28T01:34:05;3.55;;;2.47;;
10945;SDS011;5525;42.648;23.368;2023-04-28T01:36:31;5.90;;;2.63;;
10945;SDS011;5525;42.648;23.368;2023-04-28T01:38:58;3.75;;;2.75;;
10945;SDS011;5525;42.648;23.368;2023-04-28T01:41:26;4.03;;;3.03;;
10945;SDS011;5525;42.648;23.368;2023-04-28T01:43:53;7.40;;;3.60;;
10945;SDS011;5525;42.648;23.368;2023-04-28T01:46:20;6.18;;;3.28;;
10945;SDS011;5525;42.648;23.368;2023-04-28T01:48:46;5.80;;;3.10;;
10945;SDS011;5525;42.648;23.368;2023-04-28T01:51:13;4.18;;;2.72;;
10945;SDS011;5525;42.648;23.368;2023-04-28T01:53:40;2.97;;;2.67;;
10945;SDS011;5525;42.648;23.368;2023-04-28T01:56:06;6.95;;;3.10;;
10945;SDS011;5525;42.648;23.368;2023-04-28T01:58:34;5.57;;;3.25;;
10945;SDS011;5525;42.648;23.368;2023-04-28T02:01:01;6.03;;;3.85;;
10945;SDS011;5525;42.648;23.368;2023-04-28T02:03:28;4.95;;;2.97;;
10945;SDS011;5525;42.648;23.368;2023-04-28T02:05:54;6.63;;;3.67;;
10945;SDS011;5525;42.648;23.368;2023-04-28T02:08:21;3.78;;;2.95;;
10945;SDS011;5525;42.648;23.368;2023-04-28T02:10:48;4.05;;;2.83;;
10945;SDS011;5525;42.648;23.368;2023-04-28T02:13:15;4.75;;;3.30;;
10945;SDS011;5525;42.648;23.368;2023-04-28T02:15:43;3.88;;;3.10;;
10945;SDS011;5525;42.648;23.368;2023-04-28T02:18:09;4.72;;;3.00;;
10945;SDS011;5525;42.648;23.368;2023-04-28T02:20:36;3.90;;;3.10;;
10945;SDS011;5525;42.648;23.368;2023-04-28T02:23:03;4.90;;;3.33;;
10945;SDS011;5525;42.648;23.368;2023-04-28T02:25:29;3.22;;;2.92;;
10945;SDS011;5525;42.648;23.368;2023-04-28T02:27:56;4.10;;;2.95;;
10945;SDS011;5525;42.648;23.368;2023-04-28T02:30:23;3.97;;;2.75;;
10945;SDS011;5525;42.648;23.368;2023-04-28T02:32:51;6.20;;;2.88;;
10945;SDS011;5525;42.648;23.368;2023-04-28T02:35:18;4.55;;;2.63;;
10945;SDS011;5525;42.648;23.368;2023-04-28T02:37:44;5.47;;;2.70;;
10945;SDS011;5525;42.648;23.368;2023-04-28T02:40:12;4.15;;;2.92;;
10945;SDS011;5525;42.648;23.368;2023-04-28T02:42:38;4.65;;;2.80;;
10945;SDS011;5525;42.648;23.368;2023-04-28T02:45:05;5.57;;;2.83;;
10945;SDS011;5525;42.648;23.368;2023-04-28T02:47:32;3.38;;;2.63;;
10945;SDS011;5525;42.648;23.368;2023-04-28T02:50:00;4.68;;;2.85;;
10945;SDS011;5525;42.648;23.368;2023-04-28T02:52:27;4.32;;;2.92;;
10945;SDS011;5525;42.648;23.368;2023-04-28T02:54:54;5.93;;;2.45;;
10945;SDS011;5525;42.648;23.368;2023-04-28T02:57:21;3.75;;;3.00;;
10945;SDS011;5525;42.648;23.368;2023-04-28T02:59:48;4.85;;;2.80;;
10945;SDS011;5525;42.648;23.368;2023-04-28T03:02:15;6.63;;;3.45;;
10945;SDS011;5525;42.648;23.368;2023-04-28T03:04:42;5.22;;;3.05;;
10945;SDS011;5525;42.648;23.368;2023-04-28T03:07:10;4.28;;;2.50;;
10945;SDS011;5525;42.648;23.368;2023-04-28T03:09:36;4.90;;;2.97;;
10945;SDS011;5525;42.648;23.368;2023-04-28T03:12:03;4.30;;;2.80;;
10945;SDS011;5525;42.648;23.368;2023-04-28T03:14:30;4.20;;;3.00;;
10945;SDS011;5525;42.648;23.368;2023-04-28T03:16:57;4.75;;;2.90;;
10945;SDS011;5525;42.648;23.368;2023-04-28T03:19:23;4.20;;;2.70;;
10945;SDS011;5525;42.648;23.368;2023-04-28T03:21:50;3.13;;;2.83;;
10945;SDS011;5525;42.648;23.368;2023-04-28T03:24:18;6.00;;;2.88;;
10945;SDS011;5525;42.648;23.368;2023-04-28T03:26:45;9.07;;;3.20;;
10945;SDS011;5525;42.648;23.368;2023-04-28T03:29:11;4.07;;;2.58;;
10945;SDS011;5525;42.648;23.368;2023-04-28T03:31:38;4.00;;;2.83;;
10945;SDS011;5525;42.648;23.368;2023-04-28T03:34:05;6.55;;;3.00;;
10945;SDS011;5525;42.648;23.368;2023-04-28T03:36:31;3.78;;;2.70;;
10945;SDS011;5525;42.648;23.368;2023-04-28T03:38:58;4.47;;;2.88;;
10945;SDS011;5525;42.648;23.368;2023-04-28T03:41:26;6.13;;;2.95;;
10945;SDS011;5525;42.648;23.368;2023-04-28T03:43:53;4.25;;;2.70;;
10945;SDS011;5525;42.648;23.368;2023-04-28T03:46:20;8.32;;;2.90;;
10945;SDS011;5525;42.648;23.368;2023-04-28T03:48:47;3.90;;;2.85;;
10945;SDS011;5525;42.648;23.368;2023-04-28T03:51:14;4.35;;;2.90;;
10945;SDS011;5525;42.648;23.368;2023-04-28T03:53:41;5.55;;;3.22;;
10945;SDS011;5525;42.648;23.368;2023-04-28T03:56:08;5.72;;;3.22;;
10945;SDS011;5525;42.648;23.368;2023-04-28T03:58:36;3.47;;;3.00;;
10945;SDS011;5525;42.648;23.368;2023-04-28T04:01:02;3.85;;;2.97;;
10945;SDS011;5525;42.648;23.368;2023-04-28T04:03:29;4.60;;;2.90;;
10945;SDS011;5525;42.648;23.368;2023-04-28T04:05:56;4.35;;;2.85;;
10945;SDS011;5525;42.648;23.368;2023-04-28T04:08:24;4.68;;;2.72;;
10945;SDS011;5525;42.648;23.368;2023-04-28T04:10:51;5.40;;;2.83;;
10945;SDS011;5525;42.648;23.368;2023-04-28T04:13:18;5.93;;;3.00;;
10945;SDS011;5525;42.648;23.368;2023-04-28T04:15:46;7.05;;;3.25;;
10945;SDS011;5525;42.648;23.368;2023-04-28T04:18:14;4.43;;;2.97;;
10945;SDS011;5525;42.648;23.368;2023-04-28T04:20:40;4.07;;;2.83;;
10945;SDS011;5525;42.648;23.368;2023-04-28T04:23:07;3.42;;;2.47;;
10945;SDS011;5525;42.648;23.368;2023-04-28T04:25:34;6.20;;;2.92;;
10945;SDS011;5525;42.648;23.368;2023-04-28T04:28:01;3.55;;;2.75;;
10945;SDS011;5525;42.648;23.368;2023-04-28T04:30:28;4.97;;;2.78;;
10945;SDS011;5525;42.648;23.368;2023-04-28T04:32:56;2.95;;;2.60;;
10945;SDS011;5525;42.648;23.368;2023-04-28T04:35:22;4.03;;;2.75;;
10945;SDS011;5525;42.648;23.368;2023-04-28T04:37:49;6.40;;;3.17;;
10945;SDS011;5525;42.648;23.368;2023-04-28T04:40:16;7.60;;;3.97;;
10945;SDS011;5525;42.648;23.368;2023-04-28T04:42:42;5.05;;;2.90;;
10945;SDS011;5525;42.648;23.368;2023-04-28T04:45:09;5.78;;;2.72;;
10945;SDS011;5525;42.648;23.368;2023-04-28T04:47:36;7.00;;;3.03;;
10945;SDS011;5525;42.648;23.368;2023-04-28T04:50:05;8.10;;;3.17;;
10945;SDS011;5525;42.648;23.368;2023-04-28T04:52:32;3.70;;;2.65;;
10945;SDS011;5525;42.648;23.368;2023-04-28T04:54:59;5.40;;;3.25;;
10945;SDS011;5525;42.648;23.368;2023-04-28T04:57:26;6.63;;;3.72;;
10945;SDS011;5525;42.648;23.368;2023-04-28T04:59:52;6.00;;;3.03;;
10945;SDS011;5525;42.648;23.368;2023-04-28T05:02:19;7.63;;;2.75;;
10945;SDS011;5525;42.648;23.368;2023-04-28T05:04:46;6.75;;;3.30;;
10945;SDS011;5525;42.648;23.368;2023-04-28T05:07:14;4.22;;;2.85;;
10945;SDS011;5525;42.648;23.368;2023-04-28T05:09:40;10.50;;;3.03;;
10945;SDS011;5525;42.648;23.368;2023-04-28T05:12:07;4.57;;;3.00;;
10945;SDS011;5525;42.648;23.368;2023-04-28T05:14:34;3.33;;;2.47;;
10945;SDS011;5525;42.648;23.368;2023-04-28T05:17:00;9.05;;;3.08;;
10945;SDS011;5525;42.648;23.368;2023-04-28T05:19:27;4.78;;;2.45;;
10945;SDS011;5525;42.648;23.368;2023-04-28T05:21:54;6.68;;;3.13;;
10945;SDS011;5525;42.648;23.368;2023-04-28T05:24:22;9.98;;;3.15;;
10945;SDS011;5525;42.648;23.368;2023-04-28T05:26:49;7.75;;;2.80;;
10945;SDS011;5525;42.648;23.368;2023-04-28T05:29:16;3.50;;;2.50;;
10945;SDS011;5525;42.648;23.368;2023-04-28T05:31:42;5.70;;;2.33;;
10945;SDS011;5525;42.648;23.368;2023-04-28T05:34:09;9.80;;;3.20;;
10945;SDS011;5525;42.648;23.368;2023-04-28T05:36:36;4.28;;;3.05;;
10945;SDS011;5525;42.648;23.368;2023-04-28T05:39:03;4.65;;;2.88;;
10945;SDS011;5525;42.648;23.368;2023-04-28T05:41:31;5.43;;;3.03;;
10945;SDS011;5525;42.648;23.368;2023-04-28T05:43:58;10.40;;;3.28;;
10945;SDS011;5525;42.648;23.368;2023-04-28T05:46:24;4.53;;;2.75;;
10945;SDS011;5525;42.648;23.368;2023-04-28T05:48:51;5.75;;;2.90;;
10945;SDS011;5525;42.648;23.368;2023-04-28T05:51:18;9.85;;;3.28;;
10945;SDS011;5525;42.648;23.368;2023-04-28T05:53:46;7.68;;;2.83;;
10945;SDS011;5525;42.648;23.368;2023-04-28T05:56:13;6.65;;;3.08;;
10945;SDS011;5525;42.648;23.368;2023-04-28T05:58:42;6.20;;;3.40;;
10945;SDS011;5525;42.648;23.368;2023-04-28T06:01:09;4.25;;;3.10;;
10945;SDS011;5525;42.648;23.368;2023-04-28T06:03:36;5.72;;;2.80;;
10945;SDS011;5525;42.648;23.368;2023-04-28T06:06:05;3.00;;;2.70;;
10945;SDS011;5525;42.648;23.368;2023-04-28T06:08:32;5.32;;;3.03;;
10945;SDS011;5525;42.648;23.368;2023-04-28T06:10:58;4.75;;;2.72;;
10945;SDS011;5525;42.648;23.368;2023-04-28T06:13:25;3.17;;;2.50;;
10945;SDS011;5525;42.648;23.368;2023-04-28T06:15:53;6.50;;;3.00;;
10945;SDS011;5525;42.648;23.368;2023-04-28T06:18:20;6.57;;;3.00;;
10945;SDS011;5525;42.648;23.368;2023-04-28T06:20:48;5.53;;;2.80;;
10945;SDS011;5525;42.648;23.368;2023-04-28T06:23:15;3.33;;;2.45;;
10945;SDS011;5525;42.648;23.368;2023-04-28T06:25:41;4.05;;;2.78;;
10945;SDS011;5525;42.648;23.368;2023-04-28T06:28:08;11.70;;;3.58;;
10945;SDS011;5525;42.648;23.368;2023-04-28T06:30:36;6.43;;;3.00;;
10945;SDS011;5525;42.648;23.368;2023-04-28T06:33:04;4.50;;;2.70;;
10945;SDS011;5525;42.648;23.368;2023-04-28T06:35:31;4.93;;;2.83;;
10945;SDS011;5525;42.648;23.368;2023-04-28T06:38:00;5.53;;;2.90;;
10945;SDS011;5525;42.648;23.368;2023-04-28T06:40:27;4.97;;;2.33;;
10945;SDS011;5525;42.648;23.368;2023-04-28T06:42:54;4.60;;;2.67;;
10945;SDS011;5525;42.648;23.368;2023-04-28T06:45:21;4.60;;;2.90;;
10945;SDS011;5525;42.648;23.368;2023-04-28T06:47:48;3.83;;;2.65;;
10945;SDS011;5525;42.648;23.368;2023-04-28T06:50:16;4.28;;;2.55;;
10945;SDS011;5525;42.648;23.368;2023-04-28T06:52:43;3.28;;;2.40;;
10945;SDS011;5525;42.648;23.368;2023-04-28T06:55:13;4.28;;;2.40;;
10945;SDS011;5525;42.648;23.368;2023-04-28T06:57:43;5.25;;;2.58;;
10945;SDS011;5525;42.648;23.368;2023-04-28T07:00:10;3.03;;;2.40;;
10945;SDS011;5525;42.648;23.368;2023-04-28T07:02:38;11.35;;;3.20;;
10945;SDS011;5525;42.648;23.368;2023-04-28T07:05:05;4.38;;;2.70;;
10945;SDS011;5525;42.648;23.368;2023-04-28T07:07:34;5.78;;;2.58;;
10945;SDS011;5525;42.648;23.368;2023-04-28T07:10:02;3.72;;;2.40;;
10945;SDS011;5525;42.648;23.368;2023-04-28T07:12:30;4.88;;;2.78;;
10945;SDS011;5525;42.648;23.368;2023-04-28T07:14:56;4.88;;;2.40;;
10945;SDS011;5525;42.648;23.368;2023-04-28T07:17:23;3.75;;;2.45;;
10945;SDS011;5525;42.648;23.368;2023-04-28T07:19:50;5.13;;;2.58;;
10945;SDS011;5525;42.648;23.368;2023-04-28T07:22:16;6.50;;;2.80;;
10945;SDS011;5525;42.648;23.368;2023-04-28T07:24:44;4.93;;;2.80;;
10945;SDS011;5525;42.648;23.368;2023-04-28T07:27:11;5.97;;;3.03;;
10945;SDS011;5525;42.648;23.368;2023-04-28T07:29:38;7.28;;;2.72;;
10945;SDS011;5525;42.648;23.368;2023-04-28T07:32:05;4.35;;;2.70;;
10945;SDS011;5525;42.648;23.368;2023-04-28T07:34:32;5.53;;;2.60;;
10945;SDS011;5525;42.648;23.368;2023-04-28T07:36:59;4.63;;;2.90;;
10945;SDS011;5525;42.648;23.368;2023-04-28T07:39:27;5.85;;;2.70;;
10945;SDS011;5525;42.648;23.368;2023-04-28T07:41:55;4.10;;;2.80;;
10945;SDS011;5525;42.648;23.368;2023-04-28T07:44:23;4.57;;;2.60;;
10945;SDS011;5525;42.648;23.368;2023-04-28T07:46:49;4.65;;;2.80;;
10945;SDS011;5525;42.648;23.368;2023-04-28T07:49:16;6.60;;;3.03;;
10945;SDS011;5525;42.648;23.368;2023-04-28T07:51:43;3.53;;;2.90;;
10945;SDS011;5525;42.648;23.368;2023-04-28T07:54:10;6.60;;;2.95;;
10945;SDS011;5525;42.648;23.368;2023-04-28T07:56:37;3.72;;;2.85;;
10945;SDS011;5525;42.648;23.368;2023-04-28T07:59:05;3.75;;;2.50;;
10945;SDS011;5525;42.648;23.368;2023-04-28T08:01:32;5.70;;;2.70;;
10945;SDS011;5525;42.648;23.368;2023-04-28T08:03:58;4.07;;;2.80;;
10945;SDS011;5525;42.648;23.368;2023-04-28T08:06:25;4.65;;;2.40;;
10945;SDS011;5525;42.648;23.368;2023-04-28T08:08:53;3.67;;;2.47;;
10945;SDS011;5525;42.648;23.368;2023-04-28T08:11:20;2.58;;;2.38;;
10945;SDS011;5525;42.648;23.368;2023-04-28T08:13:47;4.40;;;2.30;;
10945;SDS011;5525;42.648;23.368;2023-04-28T08:16:15;4.88;;;2.88;;
10945;SDS011;5525;42.648;23.368;2023-04-28T08:18:42;4.13;;;2.58;;
10945;SDS011;5525;42.648;23.368;2023-04-28T08:21:09;4.07;;;2.60;;
10945;SDS011;5525;42.648;23.368;2023-04-28T08:23:36;4.07;;;2.65;;
10945;SDS011;5525;42.648;23.368;2023-04-28T08:26:03;7.18;;;2.60;;
10945;SDS011;5525;42.648;23.368;2023-04-28T08:28:30;3.55;;;2.53;;
10945;SDS011;5525;42.648;23.368;2023-04-28T08:30:58;4.72;;;2.70;;
10945;SDS011;5525;42.648;23.368;2023-04-28T08:33:26;3.83;;;2.63;;
10945;SDS011;5525;42.648;23.368;2023-04-28T08:35:54;9.60;;;3.20;;
10945;SDS011;5525;42.648;23.368;2023-04-28T08:38:20;5.97;;;2.60;;
10945;SDS011;5525;42.648;23.368;2023-04-28T08:40:49;4.90;;;2.70;;
10945;SDS011;5525;42.648;23.368;2023-04-28T08:43:16;5.75;;;3.00;;
10945;SDS011;5525;42.648;23.368;2023-04-28T08:45:44;5.32;;;2.92;;
10945;SDS011;5525;42.648;23.368;2023-04-28T08:48:14;6.28;;;2.67;;
10945;SDS011;5525;42.648;23.368;2023-04-28T08:50:48;4.00;;;2.63;;
10945;SDS011;5525;42.648;23.368;2023-04-28T08:53:17;5.35;;;2.92;;
10945;SDS011;5525;42.648;23.368;2023-04-28T08:55:50;4.75;;;2.53;;
10945;SDS011;5525;42.648;23.368;2023-04-28T08:58:19;6.25;;;2.60;;
10945;SDS011;5525;42.648;23.368;2023-04-28T09:00:48;3.45;;;2.20;;
10945;SDS011;5525;42.648;23.368;2023-04-28T09:03:14;3.70;;;2.80;;
10945;SDS011;5525;42.648;23.368;2023-04-28T09:05:41;3.65;;;2.60;;
10945;SDS011;5525;42.648;23.368;2023-04-28T09:08:09;2.55;;;2.20;;
10945;SDS011;5525;42.648;23.368;2023-04-28T09:10:37;3.65;;;2.42;;
10945;SDS011;5525;42.648;23.368;2023-04-28T09:13:04;3.53;;;2.70;;
10945;SDS011;5525;42.648;23.368;2023-04-28T09:15:31;3.97;;;2.60;;
10945;SDS011;5525;42.648;23.368;2023-04-28T09:17:59;8.95;;;3.03;;
10945;SDS011;5525;42.648;23.368;2023-04-28T09:20:27;3.22;;;1.98;;
10945;SDS011;5525;42.648;23.368;2023-04-28T09:23:10;6.40;;;2.67;;
10945;SDS011;5525;42.648;23.368;2023-04-28T09:25:54;4.63;;;2.63;;
10945;SDS011;5525;42.648;23.368;2023-04-28T09:28:22;3.97;;;2.60;;
10945;SDS011;5525;42.648;23.368;2023-04-28T09:30:49;3.95;;;2.50;;
10945;SDS011;5525;42.648;23.368;2023-04-28T09:33:15;5.90;;;2.58;;
10945;SDS011;5525;42.648;23.368;2023-04-28T09:35:42;8.65;;;2.88;;
10945;SDS011;5525;42.648;23.368;2023-04-28T09:38:13;2.47;;;2.28;;
10945;SDS011;5525;42.648;23.368;2023-04-28T09:40:50;4.80;;;2.45;;
10945;SDS011;5525;42.648;23.368;2023-04-28T09:43:22;4.35;;;2.72;;
10945;SDS011;5525;42.648;23.368;2023-04-28T09:45:50;3.75;;;2.80;;
10945;SDS011;5525;42.648;23.368;2023-04-28T09:48:17;3.88;;;2.50;;
10945;SDS011;5525;42.648;23.368;2023-04-28T09:50:52;3.95;;;2.40;;
10945;SDS011;5525;42.648;23.368;2023-04-28T09:53:21;3.03;;;2.45;;
10945;SDS011;5525;42.648;23.368;2023-04-28T09:55:51;3.97;;;2.35;;
10945;SDS011;5525;42.648;23.368;2023-04-28T09:58:19;4.47;;;2.28;;
10945;SDS011;5525;42.648;23.368;2023-04-28T10:00:48;5.63;;;2.10;;
10945;SDS011;5525;42.648;23.368;2023-04-28T10:03:18;3.80;;;2.28;;
10945;SDS011;5525;42.648;23.368;2023-04-28T10:05:47;2.90;;;2.25;;
10945;SDS011;5525;42.648;23.368;2023-04-28T10:08:15;3.22;;;2.28;;
10945;SDS011;5525;42.648;23.368;2023-04-28T10:10:44;3.72;;;2.30;;
10945;SDS011;5525;42.648;23.368;2023-04-28T10:13:13;4.57;;;2.22;;
10945;SDS011;5525;42.648;23.368;2023-04-28T10:15:41;3.58;;;2.10;;
10945;SDS011;5525;42.648;23.368;2023-04-28T10:18:07;3.05;;;2.00;;
10945;SDS011;5525;42.648;23.368;2023-04-28T10:20:34;5.43;;;2.05;;
10945;SDS011;5525;42.648;23.368;2023-04-28T10:23:05;3.92;;;2.20;;
10945;SDS011;5525;42.648;23.368;2023-04-28T10:25:53;4.53;;;2.03;;
10945;SDS011;5525;42.648;23.368;2023-04-28T10:28:23;3.63;;;2.40;;
10945;SDS011;5525;42.648;23.368;2023-04-28T10:31:10;3.75;;;1.92;;
10945;SDS011;5525;42.648;23.368;2023-04-28T10:33:37;4.15;;;2.05;;
10945;SDS011;5525;42.648;23.368;2023-04-28T10:36:05;2.97;;;2.08;;
10945;SDS011;5525;42.648;23.368;2023-04-28T10:38:33;3.47;;;2.00;;
10945;SDS011;5525;42.648;23.368;2023-04-28T10:41:01;4.10;;;2.10;;
10945;SDS011;5525;42.648;23.368;2023-04-28T10:43:32;4.18;;;2.38;;
10945;SDS011;5525;42.648;23.368;2023-04-28T10:46:07;5.57;;;1.92;;
10945;SDS011;5525;42.648;23.368;2023-04-28T10:48:53;9.40;;;2.50;;
10945;SDS011;5525;42.648;23.368;2023-04-28T10:51:21;4.90;;;2.20;;
10945;SDS011;5525;42.648;23.368;2023-04-28T10:59:47;4.82;;;2.03;;
10945;SDS011;5525;42.648;23.368;2023-04-28T11:02:36;6.65;;;3.13;;
10945;SDS011;5525;42.648;23.368;2023-04-28T11:11:11;4.75;;;2.00;;
10945;SDS011;5525;42.648;23.368;2023-04-28T11:13:43;2.00;;;1.80;;
10945;SDS011;5525;42.648;23.368;2023-04-28T11:16:13;4.63;;;1.85;;
10945;SDS011;5525;42.648;23.368;2023-04-28T11:18:48;5.13;;;2.10;;
10945;SDS011;5525;42.648;23.368;2023-04-28T11:21:28;5.22;;;2.38;;
10945;SDS011;5525;42.648;23.368;2023-04-28T11:23:56;3.45;;;2.10;;
10945;SDS011;5525;42.648;23.368;2023-04-28T11:26:24;3.65;;;2.00;;
10945;SDS011;5525;42.648;23.368;2023-04-28T11:28:53;5.68;;;2.10;;
10945;SDS011;5525;42.648;23.368;2023-04-28T11:31:21;6.80;;;2.40;;
10945;SDS011;5525;42.648;23.368;2023-04-28T11:33:55;2.58;;;2.05;;
10945;SDS011;5525;42.648;23.368;2023-04-28T11:36:25;14.52;;;2.33;;
10945;SDS011;5525;42.648;23.368;2023-04-28T11:38:54;4.15;;;1.80;;
10945;SDS011;5525;42.648;23.368;2023-04-28T11:41:22;5.22;;;1.90;;
10945;SDS011;5525;42.648;23.368;2023-04-28T11:43:49;6.28;;;2.00;;
10945;SDS011;5525;42.648;23.368;2023-04-28T11:46:18;3.83;;;1.67;;
10945;SDS011;5525;42.648;23.368;2023-04-28T11:48:46;3.03;;;2.08;;
10945;SDS011;5525;42.648;23.368;2023-04-28T11:51:30;5.95;;;2.00;;
10945;SDS011;5525;42.648;23.368;2023-04-28T11:53:59;2.30;;;1.73;;
10945;SDS011;5525;42.648;23.368;2023-04-28T11:56:26;3.35;;;1.90;;
10945;SDS011;5525;42.648;23.368;2023-04-28T11:59:00;5.60;;;2.17;;
10945;SDS011;5525;42.648;23.368;2023-04-28T12:01:29;3.75;;;1.85;;
10945;SDS011;5525;42.648;23.368;2023-04-28T12:03:57;2.88;;;2.05;;
10945;SDS011;5525;42.648;23.368;2023-04-28T12:06:24;3.92;;;1.77;;
10945;SDS011;5525;42.648;23.368;2023-04-28T12:08:52;5.30;;;1.77;;
10945;SDS011;5525;42.648;23.368;2023-04-28T12:11:18;4.00;;;1.92;;
10945;SDS011;5525;42.648;23.368;2023-04-28T12:16:39;2.67;;;1.65;;
10945;SDS011;5525;42.648;23.368;2023-04-28T12:19:09;3.35;;;2.05;;
10945;SDS011;5525;42.648;23.368;2023-04-28T12:21:37;2.33;;;1.67;;
10945;SDS011;5525;42.648;23.368;2023-04-28T12:24:17;4.22;;;2.00;;
10945;SDS011;5525;42.648;23.368;2023-04-28T12:26:46;4.05;;;1.70;;
10945;SDS011;5525;42.648;23.368;2023-04-28T12:32:04;2.47;;;1.90;;
10945;SDS011;5525;42.648;23.368;2023-04-28T12:34:32;2.20;;;1.70;;
10945;SDS011;5525;42.648;23.368;2023-04-28T12:36:59;5.55;;;1.60;;
10945;SDS011;5525;42.648;23.368;2023-04-28T12:39:30;4.88;;;1.90;;
10945;SDS011;5525;42.648;23.368;2023-04-28T12:41:57;6.55;;;2.50;;
10945;SDS011;5525;42.648;23.368;2023-04-28T12:44:24;4.18;;;1.98;;
10945;SDS011;5525;42.648;23.368;2023-04-28T12:46:52;2.92;;;2.30;;
10945;SDS011;5525;42.648;23.368;2023-04-28T12:49:21;6.13;;;2.35;;
10945;SDS011;5525;42.648;23.368;2023-04-28T12:51:48;4.45;;;2.10;;
10945;SDS011;5525;42.648;23.368;2023-04-28T12:54:15;3.60;;;1.80;;
10945;SDS011;5525;42.648;23.368;2023-04-28T12:56:41;3.90;;;2.53;;
10945;SDS011;5525;42.648;23.368;2023-04-28T12:59:08;3.63;;;1.77;;
10945;SDS011;5525;42.648;23.368;2023-04-28T13:01:35;4.88;;;1.80;;
10945;SDS011;5525;42.648;23.368;2023-04-28T13:04:02;2.90;;;1.73;;
10945;SDS011;5525;42.648;23.368;2023-04-28T13:06:30;4.30;;;2.20;;
10945;SDS011;5525;42.648;23.368;2023-04-28T13:08:57;2.65;;;1.90;;
10945;SDS011;5525;42.648;23.368;2023-04-28T13:11:23;2.63;;;2.00;;
10945;SDS011;5525;42.648;23.368;2023-04-28T13:13:52;6.55;;;2.00;;
10945;SDS011;5525;42.648;23.368;2023-04-28T13:16:19;4.30;;;1.70;;
10945;SDS011;5525;42.648;23.368;2023-04-28T13:18:46;2.75;;;1.92;;
10945;SDS011;5525;42.648;23.368;2023-04-28T13:21:14;2.58;;;1.48;;
10945;SDS011;5525;42.648;23.368;2023-04-28T13:23:42;3.42;;;1.75;;
10945;SDS011;5525;42.648;23.368;2023-04-28T13:26:09;4.55;;;1.70;;
10945;SDS011;5525;42.648;23.368;2023-04-28T13:28:36;2.42;;;1.73;;
10945;SDS011;5525;42.648;23.368;2023-04-28T13:31:03;3.90;;;1.75;;
10945;SDS011;5525;42.648;23.368;2023-04-28T13:33:30;2.03;;;1.65;;
10945;SDS011;5525;42.648;23.368;2023-04-28T13:35:56;3.35;;;1.77;;
10945;SDS011;5525;42.648;23.368;2023-04-28T13:38:23;7.72;;;1.83;;
10945;SDS011;5525;42.648;23.368;2023-04-28T13:40:52;3.15;;;2.10;;
10945;SDS011;5525;42.648;23.368;2023-04-28T13:43:19;4.15;;;1.85;;
10945;SDS011;5525;42.648;23.368;2023-04-28T13:45:45;2.83;;;1.70;;
10945;SDS011;5525;42.648;23.368;2023-04-28T13:48:12;5.50;;;1.98;;
10945;SDS011;5525;42.648;23.368;2023-04-28T13:50:39;2.20;;;1.90;;
10945;SDS011;5525;42.648;23.368;2023-04-28T13:53:06;2.90;;;1.80;;
10945;SDS011;5525;42.648;23.368;2023-04-28T13:55:33;2.75;;;1.98;;
10945;SDS011;5525;42.648;23.368;2023-04-28T13:58:01;2.40;;;1.88;;
10945;SDS011;5525;42.648;23.368;2023-04-28T14:00:29;3.78;;;1.90;;
10945;SDS011;5525;42.648;23.368;2023-04-28T14:02:56;2.83;;;2.30;;
10945;SDS011;5525;42.648;23.368;2023-04-28T14:05:23;11.40;;;2.45;;
10945;SDS011;5525;42.648;23.368;2023-04-28T14:07:50;2.58;;;1.75;;
10945;SDS011;5525;42.648;23.368;2023-04-28T14:10:18;4.80;;;2.00;;
10945;SDS011;5525;42.648;23.368;2023-04-28T14:12:45;5.32;;;2.80;;
10945;SDS011;5525;42.648;23.368;2023-04-28T14:15:13;4.60;;;1.52;;
10945;SDS011;5525;42.648;23.368;2023-04-28T14:17:40;3.97;;;1.95;;
10945;SDS011;5525;42.648;23.368;2023-04-28T14:20:07;7.03;;;1.92;;
10945;SDS011;5525;42.648;23.368;2023-04-28T14:22:35;6.25;;;2.10;;
10945;SDS011;5525;42.648;23.368;2023-04-28T14:25:02;3.60;;;2.10;;
10945;SDS011;5525;42.648;23.368;2023-04-28T14:27:29;5.93;;;2.20;;
10945;SDS011;5525;42.648;23.368;2023-04-28T14:29:57;4.07;;;2.08;;
10945;SDS011;5525;42.648;23.368;2023-04-28T14:32:25;4.30;;;2.03;;
10945;SDS011;5525;42.648;23.368;2023-04-28T14:34:52;5.88;;;2.00;;
10945;SDS011;5525;42.648;23.368;2023-04-28T14:37:18;3.22;;;1.90;;
10945;SDS011;5525;42.648;23.368;2023-04-28T14:39:45;8.00;;;2.30;;
10945;SDS011;5525;42.648;23.368;2023-04-28T14:42:13;2.88;;;1.90;;
10945;SDS011;5525;42.648;23.368;2023-04-28T14:44:40;4.07;;;1.70;;
10945;SDS011;5525;42.648;23.368;2023-04-28T14:47:06;3.58;;;1.90;;
10945;SDS011;5525;42.648;23.368;2023-04-28T14:49:35;2.70;;;1.67;;
10945;SDS011;5525;42.648;23.368;2023-04-28T14:52:01;2.55;;;1.85;;
10945;SDS011;5525;42.648;23.368;2023-04-28T14:54:29;4.28;;;2.13;;
10945;SDS011;5525;42.648;23.368;2023-04-28T14:56:56;6.30;;;2.10;;
10945;SDS011;5525;42.648;23.368;2023-04-28T14:59:24;3.88;;;2.03;;
10945;SDS011;5525;42.648;23.368;2023-04-28T15:01:51;2.85;;;1.95;;
10945;SDS011;5525;42.648;23.368;2023-04-28T15:04:18;4.65;;;1.65;;
10945;SDS011;5525;42.648;23.368;2023-04-28T15:06:46;4.38;;;2.22;;
10945;SDS011;5525;42.648;23.368;2023-04-28T15:09:12;5.38;;;2.25;;